LGRP/RHO METAR and TAF weather

Enter ICAO airport designator
Station Type Date Time Source
LGRP METAR 2021/03/08 15:20 UTC NOAA

LGRP 081520Z 24015KT CAVOK 15/06 Q1014 NOSIG


Station Type Date Time Source
LGRP Decoded METAR 2021/03/08 15:20 UTC NOAA

Rhodes Airport , Greece (LGRP) 36-24N 028-05E 11M
Mar 08, 2021 - 10:20 AM EST / 2021.03.08 1520 UTC
Wind: from the WSW (240 degrees) at 17 MPH (15 KT):0
Visibility: greater than 7 mile(s):0
Temperature: 59 F (15 C)
Dew Point: 42 F (6 C)
Relative Humidity: 54%
Pressure (altimeter): 29.94 in. Hg (1014 hPa)
ob: LGRP 081520Z 24015KT CAVOK 15/06 Q1014 NOSIG
cycle: 15

Station Type Date Time Source
LGRP TAF 2021/03/08 12:16 UTC NOAA

TAF LGRP 081100Z 0812/0912 27012KT 9999 FEW018
BECMG 0900/0902 VRB03KT PROB30
TEMPO 0821/0912 5000 RA SCT018 BKN050

Example: see airport list